createdAt,value
2018-11-25T00:00:45.841Z,79.82
2018-11-25T00:03:13.256Z,82.67
2018-11-25T00:05:40.889Z,83.82
2018-11-25T00:08:08.581Z,81.70
2018-11-25T00:10:36.351Z,73.40
2018-11-25T00:13:03.793Z,75.42
2018-11-25T00:15:31.537Z,77.92
2018-11-25T00:17:59.225Z,76.17
2018-11-25T00:20:26.643Z,84.10
2018-11-25T00:22:54.663Z,83.05
2018-11-25T00:25:22.619Z,83.78
2018-11-25T00:27:50.357Z,81.53
2018-11-25T00:30:17.693Z,87.40
2018-11-25T00:32:45.101Z,81.78
2018-11-25T00:35:14.604Z,81.35
2018-11-25T00:37:48.022Z,84.80
2018-11-25T00:40:10.140Z,90.80
2018-11-25T00:42:37.907Z,86.75
2018-11-25T00:45:06.830Z,89.30
2018-11-25T00:47:35.022Z,87.00
2018-11-25T00:50:02.705Z,86.92
2018-11-25T00:52:30.091Z,86.85
2018-11-25T00:54:57.473Z,90.83
2018-11-25T00:57:25.627Z,91.10
2018-11-25T00:59:53.001Z,89.70
2018-11-25T01:02:20.371Z,96.40
2018-11-25T01:04:48.068Z,94.05
2018-11-25T01:07:15.522Z,93.97
2018-11-25T01:09:42.921Z,88.10
2018-11-25T01:12:10.313Z,94.20
2018-11-25T01:14:38.570Z,91.17
2018-11-25T01:17:06.511Z,92.20
2018-11-25T01:19:34.226Z,95.47
2018-11-25T01:22:01.634Z,94.35
2018-11-25T01:24:29.610Z,92.77
2018-11-25T01:26:57.037Z,99.50
2018-11-25T01:29:24.466Z,92.82
2018-11-25T01:31:52.498Z,102.27
2018-11-25T01:34:19.917Z,95.92
2018-11-25T01:36:47.371Z,91.37
2018-11-25T01:39:14.756Z,96.40
2018-11-25T01:41:42.414Z,97.27
2018-11-25T01:44:10.470Z,96.40
2018-11-25T01:46:38.155Z,100.60
2018-11-25T01:49:05.564Z,95.25
2018-11-25T01:51:32.938Z,100.10
2018-11-25T01:54:00.789Z,97.95
2018-11-25T01:56:28.406Z,103.07
2018-11-25T01:58:55.785Z,99.80
2018-11-25T02:01:23.213Z,102.47
2018-11-25T02:03:50.635Z,104.63
2018-11-25T02:06:18.326Z,105.07
2018-11-25T02:08:46.779Z,103.35
2018-11-25T02:11:14.183Z,109.52
2018-11-25T02:13:41.966Z,104.87
2018-11-25T02:16:09.364Z,114.08
2018-11-25T02:18:36.746Z,107.70
2018-11-25T02:21:04.814Z,108.85
2018-11-25T02:23:32.463Z,105.17
2018-11-25T02:26:01.067Z,106.30
2018-11-25T02:28:28.742Z,111.10
2018-11-25T02:30:56.473Z,111.92
2018-11-25T02:33:23.851Z,106.17
2018-11-25T02:35:51.576Z,114.62
2018-11-25T02:38:18.998Z,108.30
2018-11-25T02:40:46.726Z,113.80
2018-11-25T02:43:14.898Z,107.07
2018-11-25T02:45:42.304Z,112.05
2018-11-25T02:48:10.101Z,120.40
2018-11-25T02:50:37.470Z,117.05
2018-11-25T02:53:06.523Z,117.13
2018-11-25T02:55:34.544Z,112.42
2018-11-25T02:58:01.907Z,113.25
2018-11-25T03:00:29.590Z,108.65
2018-11-25T03:02:56.962Z,109.90
2018-11-25T03:05:25.182Z,113.52
2018-11-25T03:07:53.371Z,113.95
2018-11-25T03:10:21.370Z,117.97
2018-11-25T03:12:49.006Z,113.03
2018-11-25T03:15:17.544Z,117.53
2018-11-25T03:17:45.176Z,111.22
2018-11-25T03:20:13.451Z,112.52
2018-11-25T03:22:41.837Z,120.62
2018-11-25T03:25:09.883Z,113.62
2018-11-25T03:27:37.278Z,112.90
2018-11-25T03:30:06.079Z,106.90
2018-11-25T03:32:33.441Z,101.80
2018-11-25T03:35:01.134Z,103.72
2018-11-25T03:37:29.506Z,105.13
2018-11-25T03:39:58.119Z,109.75
2018-11-25T03:42:26.062Z,101.40
2018-11-25T03:44:54.110Z,107.92
2018-11-25T03:47:21.495Z,105.30
2018-11-25T03:49:48.829Z,100.42
2018-11-25T03:52:16.418Z,100.10
2018-11-25T03:54:43.838Z,106.47
2018-11-25T03:57:11.436Z,100.30
2018-11-25T03:59:39.803Z,100.87
2018-11-25T04:02:07.511Z,100.95
2018-11-25T04:04:34.912Z,96.75
2018-11-25T04:07:02.304Z,101.53
2018-11-25T04:09:29.694Z,106.20
2018-11-25T04:11:57.058Z,100.18
2018-11-25T04:14:24.426Z,99.55
2018-11-25T04:16:51.824Z,99.05
2018-11-25T04:19:19.573Z,105.45
2018-11-25T04:21:46.985Z,101.95
2018-11-25T04:24:15.170Z,108.97
2018-11-25T04:26:42.862Z,105.07
2018-11-25T04:29:10.225Z,107.47
2018-11-25T04:31:38.742Z,100.22
2018-11-25T04:34:06.368Z,100.07
2018-11-25T04:36:33.977Z,96.93
2018-11-25T04:39:01.614Z,96.42
2018-11-25T04:41:29.247Z,101.95
2018-11-25T04:43:56.831Z,102.87
2018-11-25T04:46:24.495Z,100.30
2018-11-25T04:48:52.848Z,101.33
2018-11-25T04:51:20.261Z,101.10
2018-11-25T04:53:47.930Z,99.55
2018-11-25T04:56:15.574Z,93.65
2018-11-25T04:58:43.305Z,101.10
2018-11-25T05:01:10.642Z,90.90
2018-11-25T05:03:38.310Z,94.05
2018-11-25T05:06:06.104Z,95.55
2018-11-25T05:08:33.498Z,92.72
2018-11-25T05:11:01.886Z,94.47
2018-11-25T05:13:30.196Z,95.10
2018-11-25T05:15:57.530Z,94.05
2018-11-25T05:18:24.879Z,94.73
2018-11-25T05:20:52.237Z,96.85
2018-11-25T05:23:19.920Z,94.42
2018-11-25T05:25:48.112Z,99.20
2018-11-25T05:28:15.526Z,97.97
2018-11-25T05:30:42.910Z,93.67
2018-11-25T05:33:10.246Z,98.33
2018-11-25T05:35:37.625Z,91.50
2018-11-25T05:38:05.268Z,96.83
2018-11-25T05:40:32.590Z,90.03
2018-11-25T05:42:59.902Z,99.17
2018-11-25T05:45:27.756Z,88.12
2018-11-25T05:47:55.175Z,95.72
2018-11-25T05:50:22.874Z,91.60
2018-11-25T05:52:50.539Z,88.07
2018-11-25T05:55:18.174Z,95.92
2018-11-25T05:57:45.554Z,97.10
2018-11-25T06:00:13.838Z,101.10
2018-11-25T06:02:41.758Z,97.90
2018-11-25T06:05:09.452Z,97.10
2018-11-25T06:07:36.859Z,102.25
2018-11-25T06:10:04.785Z,100.65
2018-11-25T06:12:32.513Z,96.27
2018-11-25T06:15:00.210Z,95.83
2018-11-25T06:17:28.396Z,101.02
2018-11-25T06:19:55.852Z,99.20
2018-11-25T06:22:23.568Z,107.07
2018-11-25T06:24:50.972Z,98.15
2018-11-25T06:27:18.665Z,105.63
2018-11-25T06:29:46.418Z,99.80
2018-11-25T06:32:14.098Z,97.50
2018-11-25T06:34:42.023Z,97.97
2018-11-25T06:37:09.407Z,100.10
2018-11-25T06:39:36.789Z,101.97
2018-11-25T06:42:04.878Z,98.97
2018-11-25T06:44:32.865Z,97.78
2018-11-25T06:47:00.208Z,109.05
2018-11-25T06:49:27.879Z,104.43
2018-11-25T06:51:56.445Z,111.70
2018-11-25T06:54:24.983Z,111.05
2018-11-25T06:56:52.618Z,110.83
2018-11-25T06:59:20.629Z,100.70
2018-11-25T07:01:48.017Z,101.80
2018-11-25T07:04:16.500Z,101.97
2018-11-25T07:06:45.336Z,99.25
2018-11-25T07:09:12.774Z,100.75
2018-11-25T07:11:40.201Z,102.90
2018-11-25T07:14:07.566Z,101.02
2018-11-25T07:16:34.941Z,96.45
2018-11-25T07:19:02.612Z,100.15
2018-11-25T07:21:30.007Z,100.67
2018-11-25T07:23:57.730Z,101.30
2018-11-25T07:26:25.053Z,107.40
2018-11-25T07:28:52.786Z,102.60
2018-11-25T07:31:20.177Z,103.75
2018-11-25T07:33:47.808Z,108.90
2018-11-25T07:36:15.176Z,107.55
2018-11-25T07:38:43.231Z,106.73
2018-11-25T07:41:10.583Z,102.30
2018-11-25T07:43:38.821Z,114.05
2018-11-25T07:46:06.600Z,107.72
2018-11-25T07:48:34.562Z,108.27
2018-11-25T07:51:01.975Z,106.20
2018-11-25T07:53:29.367Z,110.80
2018-11-25T07:55:57.247Z,107.17
2018-11-25T07:58:24.577Z,106.17
2018-11-25T08:00:52.305Z,112.80
2018-11-25T08:03:19.693Z,114.20
2018-11-25T08:05:47.835Z,106.63
2018-11-25T08:08:16.007Z,113.47
2018-11-25T08:10:43.709Z,116.75
2018-11-25T08:13:11.071Z,119.15
2018-11-25T08:15:38.734Z,108.85
2018-11-25T08:18:06.367Z,120.15
2018-11-25T08:20:33.806Z,120.17
2018-11-25T08:23:01.193Z,114.35
2018-11-25T08:25:28.589Z,113.17
2018-11-25T08:27:56.303Z,110.15
2018-11-25T08:30:24.259Z,111.20
2018-11-25T08:32:52.615Z,113.80
2018-11-25T08:35:20.358Z,105.58
2018-11-25T08:37:47.742Z,112.10
2018-11-25T08:40:21.241Z,112.05
2018-11-25T08:42:48.581Z,110.65
2018-11-25T08:45:15.967Z,112.10
2018-11-25T08:47:43.798Z,106.80
2018-11-25T08:50:13.092Z,112.95
2018-11-25T08:52:41.218Z,111.08
2018-11-25T08:55:09.367Z,111.95
2018-11-25T08:57:36.746Z,113.17
2018-11-25T09:00:04.579Z,102.90
2018-11-25T09:02:32.321Z,106.92
2018-11-25T09:04:59.951Z,107.75
2018-11-25T09:07:28.156Z,104.03
2018-11-25T09:09:56.331Z,108.20
2018-11-25T09:12:23.703Z,109.10
2018-11-25T09:14:51.454Z,108.23
2018-11-25T09:17:18.885Z,106.75
2018-11-25T09:19:46.882Z,110.40
2018-11-25T09:22:14.268Z,115.97
2018-11-25T09:24:41.670Z,122.30
2018-11-25T09:27:09.070Z,127.00
2018-11-25T09:29:37.209Z,123.78
2018-11-25T09:32:06.311Z,126.20
2018-11-25T09:34:34.786Z,131.15
2018-11-25T09:37:02.638Z,107.87
2018-11-25T09:39:30.227Z,104.47
2018-11-25T09:41:58.004Z,109.72
2018-11-25T09:44:25.417Z,104.30
2018-11-25T09:46:53.345Z,105.55
2018-11-25T09:49:20.775Z,104.53
2018-11-25T09:51:48.202Z,103.70
2018-11-25T09:54:15.789Z,111.88
2018-11-25T09:56:43.201Z,105.75
2018-11-25T09:59:10.911Z,104.20
2018-11-25T10:01:38.908Z,107.50
2018-11-25T10:04:07.359Z,101.62
2018-11-25T10:06:36.004Z,102.38
2018-11-25T10:09:04.154Z,97.82
2018-11-25T10:11:31.574Z,99.67
2018-11-25T10:14:00.355Z,96.25
2018-11-25T10:16:27.697Z,99.92
2018-11-25T10:18:55.383Z,93.25
2018-11-25T10:21:23.259Z,102.55
2018-11-25T10:23:50.986Z,92.62
2018-11-25T10:26:18.678Z,98.67
2018-11-25T10:28:46.022Z,97.02
2018-11-25T10:31:13.356Z,92.85
2018-11-25T10:33:41.055Z,91.17
2018-11-25T10:36:08.914Z,86.92
2018-11-25T10:38:37.183Z,88.67
2018-11-25T10:41:04.827Z,86.20
2018-11-25T10:43:32.553Z,84.45
2018-11-25T10:45:59.956Z,81.22
2018-11-25T10:48:27.713Z,81.20
2018-11-25T10:50:55.085Z,79.03
2018-11-25T10:53:22.493Z,76.07
2018-11-25T10:55:49.913Z,72.22
2018-11-25T10:58:18.243Z,72.27
2018-11-25T11:00:51.122Z,71.10
2018-11-25T11:03:24.262Z,76.50
2018-11-25T11:05:57.354Z,73.03
2018-11-25T11:08:24.707Z,72.10
2018-11-25T11:10:52.667Z,74.10
2018-11-25T11:13:20.004Z,67.50
2018-11-25T11:15:47.698Z,67.53
2018-11-25T11:18:15.357Z,67.95
2018-11-25T11:20:42.683Z,64.85
2018-11-25T11:23:10.133Z,63.33
2018-11-25T11:25:37.586Z,62.95
2018-11-25T11:28:05.441Z,62.00
2018-11-25T11:30:34.388Z,72.47
2018-11-25T11:33:01.818Z,54.70
2018-11-25T11:35:29.217Z,57.85
2018-11-25T11:37:57.039Z,57.95
2018-11-25T11:40:24.601Z,53.98
2018-11-25T11:42:52.279Z,52.08
2018-11-25T11:45:19.648Z,53.10
2018-11-25T11:47:47.074Z,52.38
2018-11-25T11:50:15.967Z,47.78
2018-11-25T11:52:43.526Z,50.20
2018-11-25T11:55:11.887Z,49.23
2018-11-25T11:57:39.784Z,49.45
2018-11-25T12:00:17.191Z,49.05
2018-11-25T12:02:44.823Z,47.95
2018-11-25T12:05:12.622Z,51.70
2018-11-25T12:07:40.278Z,47.45
2018-11-25T12:10:09.453Z,47.50
2018-11-25T12:12:36.931Z,45.52
2018-11-25T12:15:04.907Z,49.08
2018-11-25T12:17:32.889Z,46.98
2018-11-25T12:20:00.254Z,45.95
2018-11-25T12:22:27.891Z,47.33
2018-11-25T12:24:55.325Z,44.75
2018-11-25T12:27:22.679Z,45.70
2018-11-25T12:29:50.878Z,42.00
2018-11-25T12:32:18.274Z,47.33
2018-11-25T12:34:45.659Z,46.85
2018-11-25T12:37:13.812Z,45.73
2018-11-25T12:39:42.192Z,46.75
2018-11-25T12:42:10.632Z,45.48
2018-11-25T12:44:38.008Z,45.10
2018-11-25T12:47:06.155Z,46.10
2018-11-25T12:49:33.887Z,47.25
2018-11-25T12:52:02.203Z,46.42
2018-11-25T12:54:29.883Z,46.65
2018-11-25T12:56:57.594Z,43.92
2018-11-25T12:59:24.944Z,47.45
2018-11-25T13:01:53.167Z,44.95
2018-11-25T13:04:21.135Z,49.00
2018-11-25T13:06:48.835Z,46.45
2018-11-25T13:09:16.447Z,43.80
2018-11-25T13:11:44.537Z,41.53
2018-11-25T13:14:12.222Z,45.35
2018-11-25T13:16:40.258Z,43.92
2018-11-25T13:19:07.577Z,49.05
2018-11-25T13:21:35.582Z,43.90
2018-11-25T13:24:03.889Z,40.83
2018-11-25T13:26:31.588Z,44.25
2018-11-25T13:28:59.071Z,41.68
2018-11-25T13:31:28.638Z,43.85
2018-11-25T13:33:56.760Z,42.20
2018-11-25T13:36:24.532Z,40.35
2018-11-25T13:38:52.257Z,39.42
2018-11-25T13:41:19.955Z,38.47
2018-11-25T13:43:47.317Z,41.63
2018-11-25T13:46:14.966Z,41.47
2018-11-25T13:48:43.034Z,43.35
2018-11-25T13:51:10.880Z,39.88
2018-11-25T13:53:38.911Z,37.45
2018-11-25T13:56:06.838Z,37.03
2018-11-25T13:58:35.443Z,34.78
2018-11-25T14:01:02.941Z,34.05
2018-11-25T14:03:31.986Z,36.40
2018-11-25T14:05:59.391Z,37.30
2018-11-25T14:08:26.771Z,36.33
2018-11-25T14:10:59.293Z,35.75
2018-11-25T14:13:26.636Z,36.45
2018-11-25T14:15:54.333Z,36.75
2018-11-25T14:18:22.389Z,35.85
2018-11-25T14:20:50.006Z,37.50
2018-11-25T14:23:17.632Z,35.25
2018-11-25T14:25:45.863Z,34.10
2018-11-25T14:28:15.127Z,33.60
2018-11-25T14:30:42.750Z,34.08
2018-11-25T14:33:11.411Z,32.90
2018-11-25T14:35:39.383Z,31.90
2018-11-25T14:38:07.602Z,50.80
2018-11-25T14:40:35.035Z,30.88
2018-11-25T14:43:03.060Z,28.90
2018-11-25T14:45:32.857Z,29.72
2018-11-25T14:48:00.298Z,30.90
2018-11-25T14:50:27.713Z,30.50
2018-11-25T14:52:55.797Z,30.05
2018-11-25T14:55:23.451Z,32.28
2018-11-25T14:57:51.104Z,29.05
2018-11-25T15:00:19.151Z,29.52
2018-11-25T15:02:47.846Z,31.05
2018-11-25T15:05:19.599Z,30.90
2018-11-25T15:07:47.281Z,29.23
2018-11-25T15:10:15.865Z,31.57
2018-11-25T15:12:44.497Z,31.75
2018-11-25T15:15:13.803Z,26.97
2018-11-25T15:17:42.619Z,29.77
2018-11-25T15:20:11.488Z,26.52
2018-11-25T15:22:39.414Z,27.20
2018-11-25T15:25:11.673Z,28.02
2018-11-25T15:27:39.585Z,27.52
2018-11-25T15:30:08.912Z,25.15
2018-11-25T15:32:36.439Z,26.27
2018-11-25T15:35:04.211Z,25.85
2018-11-25T15:37:32.301Z,29.52
2018-11-25T15:39:59.764Z,28.20
2018-11-25T15:42:27.150Z,28.55
2018-11-25T15:44:55.424Z,28.62
2018-11-25T15:47:23.663Z,29.05
2018-11-25T15:49:51.683Z,30.40
2018-11-25T15:52:19.328Z,30.05
2018-11-25T15:54:47.410Z,30.77
2018-11-25T15:57:15.090Z,26.90
2018-11-25T15:59:42.802Z,30.08
2018-11-25T16:02:10.273Z,30.20
2018-11-25T16:04:37.678Z,30.52
2018-11-25T16:07:05.619Z,29.92
2018-11-25T16:09:33.278Z,29.55
2018-11-25T16:12:00.701Z,30.20
2018-11-25T16:14:28.436Z,31.50
2018-11-25T16:16:55.842Z,31.68
2018-11-25T16:19:23.177Z,33.30
2018-11-25T16:21:50.851Z,33.10
2018-11-25T16:24:18.197Z,32.67
2018-11-25T16:26:46.211Z,35.98
2018-11-25T16:29:16.286Z,66.28
2018-11-25T16:31:43.672Z,62.33
2018-11-25T16:34:11.638Z,60.25
2018-11-25T16:36:39.003Z,42.27
2018-11-25T16:39:08.288Z,37.48
2018-11-25T16:41:36.027Z,37.13
2018-11-25T16:44:03.431Z,33.78
2018-11-25T16:46:31.163Z,33.67
2018-11-25T16:48:58.849Z,36.33
2018-11-25T16:51:26.902Z,37.27
2018-11-25T16:53:54.411Z,40.43
2018-11-25T16:56:21.742Z,37.20
2018-11-25T16:58:49.100Z,37.57
2018-11-25T17:01:17.066Z,54.00
2018-11-25T17:03:44.720Z,41.88
2018-11-25T17:06:12.695Z,43.60
2018-11-25T17:08:41.280Z,39.07
2018-11-25T17:11:09.164Z,43.73
2018-11-25T17:13:36.652Z,48.08
2018-11-25T17:16:04.138Z,48.37
2018-11-25T17:18:31.555Z,47.00
2018-11-25T17:20:58.899Z,43.28
2018-11-25T17:23:26.334Z,44.18
2018-11-25T17:25:53.688Z,43.85
2018-11-25T17:28:21.079Z,42.50
2018-11-25T17:30:48.519Z,41.83
2018-11-25T17:33:16.549Z,41.28
2018-11-25T17:35:43.954Z,43.58
2018-11-25T17:38:11.326Z,43.33
2018-11-25T17:40:38.874Z,44.00
2018-11-25T17:43:08.350Z,44.73
2018-11-25T17:45:35.706Z,44.93
2018-11-25T17:48:03.139Z,44.93
2018-11-25T17:50:30.832Z,46.18
2018-11-25T17:52:58.890Z,44.67
2018-11-25T17:55:26.885Z,42.95
2018-11-25T17:57:55.029Z,42.38
2018-11-25T18:01:29.733Z,40.28
2018-11-25T18:03:57.731Z,42.75
2018-11-25T18:06:25.338Z,42.67
2018-11-25T18:08:52.786Z,42.35
2018-11-25T18:11:20.487Z,39.15
2018-11-25T18:13:48.490Z,44.83
2018-11-25T18:16:16.509Z,40.87
2018-11-25T18:18:45.039Z,38.87
2018-11-25T18:21:14.439Z,39.53
2018-11-25T18:23:42.394Z,40.13
2018-11-25T18:26:10.075Z,44.18
2018-11-25T18:28:37.835Z,42.60
2018-11-25T18:31:06.227Z,39.25
2018-11-25T18:33:33.623Z,41.23
2018-11-25T18:36:00.959Z,37.80
2018-11-25T18:38:28.277Z,38.02
2018-11-25T18:40:56.048Z,37.40
2018-11-25T18:43:24.037Z,37.23
2018-11-25T18:45:59.085Z,40.33
2018-11-25T18:48:19.686Z,39.50
2018-11-25T18:50:47.497Z,36.05
2018-11-25T18:53:14.868Z,41.00
2018-11-25T18:55:41.735Z,37.85
2018-11-25T18:58:09.622Z,38.92
2018-11-25T19:00:38.083Z,40.73
2018-11-25T19:03:05.771Z,39.88
2018-11-25T19:05:33.495Z,39.80
2018-11-25T19:08:01.595Z,39.00
2018-11-25T19:10:29.034Z,40.08
2018-11-25T19:12:56.791Z,40.55
2018-11-25T19:15:24.179Z,37.38
2018-11-25T19:17:55.129Z,38.17
2018-11-25T19:20:24.814Z,49.88
2018-11-25T19:22:52.365Z,40.52
2018-11-25T19:25:19.748Z,39.07
2018-11-25T19:27:47.947Z,38.02
2018-11-25T19:30:16.097Z,37.42
2018-11-25T19:32:44.265Z,38.73
2018-11-25T19:35:12.344Z,40.75
2018-11-25T19:37:40.282Z,40.80
2018-11-25T19:40:15.519Z,39.20
2018-11-25T19:42:44.200Z,39.33
2018-11-25T19:45:12.857Z,41.08
2018-11-25T19:47:40.243Z,40.33
2018-11-25T19:50:10.570Z,40.97
2018-11-25T19:52:38.135Z,39.98
2018-11-25T19:55:06.386Z,40.85
2018-11-25T19:57:33.745Z,40.28
2018-11-25T20:00:02.204Z,38.95
2018-11-25T20:02:30.215Z,41.77
2018-11-25T20:04:58.494Z,42.40
2018-11-25T20:07:26.148Z,41.95
2018-11-25T20:09:53.713Z,42.97
2018-11-25T20:12:26.349Z,40.23
2018-11-25T20:14:53.799Z,38.35
2018-11-25T20:17:26.743Z,41.80
2018-11-25T20:19:54.151Z,39.27
2018-11-25T20:22:23.882Z,39.67
2018-11-25T20:24:51.302Z,41.83
2018-11-25T20:27:24.424Z,40.90
2018-11-25T20:29:51.793Z,39.38
2018-11-25T20:32:24.956Z,37.95
2018-11-25T20:34:52.439Z,37.90
2018-11-25T20:37:26.779Z,38.98
2018-11-25T20:39:47.547Z,37.65
2018-11-25T20:42:14.951Z,39.70
2018-11-25T20:44:42.353Z,43.13
2018-11-25T20:47:10.293Z,49.65
2018-11-25T20:49:37.922Z,54.77
2018-11-25T20:52:10.963Z,75.47
2018-11-25T20:54:39.288Z,66.77
2018-11-25T20:57:06.812Z,69.85
2018-11-25T20:59:34.485Z,50.65
2018-11-25T21:02:02.178Z,45.15
2018-11-25T21:04:29.858Z,40.73
2018-11-25T21:06:57.368Z,38.83
2018-11-25T21:09:25.053Z,41.68
2018-11-25T21:11:53.067Z,39.47
2018-11-25T21:14:21.084Z,40.98
2018-11-25T21:16:48.840Z,45.43
2018-11-25T21:19:16.199Z,40.85
2018-11-25T21:21:43.587Z,41.92
2018-11-25T21:24:10.996Z,42.80
2018-11-25T21:26:38.629Z,43.42
2018-11-25T21:29:06.043Z,42.13
2018-11-25T21:31:34.575Z,45.28
2018-11-25T21:34:02.018Z,43.30
2018-11-25T21:36:29.403Z,44.20
2018-11-25T21:38:56.762Z,44.55
2018-11-25T21:41:24.141Z,44.05
2018-11-25T21:43:51.542Z,52.88
2018-11-25T21:46:18.951Z,48.63
2018-11-25T21:48:46.628Z,60.85
2018-11-25T21:51:14.072Z,69.22
2018-11-25T21:53:41.750Z,73.80
2018-11-25T21:56:14.119Z,53.20
2018-11-25T21:58:36.899Z,47.35
2018-11-25T22:01:04.518Z,46.55
2018-11-25T22:03:31.980Z,50.17
2018-11-25T22:05:59.423Z,48.58
2018-11-25T22:08:26.812Z,52.08
2018-11-25T22:10:54.587Z,48.10
2018-11-25T22:13:22.234Z,52.20
2018-11-25T22:15:49.702Z,57.50
2018-11-25T22:18:17.142Z,55.43
2018-11-25T22:20:44.507Z,53.78
2018-11-25T22:23:12.275Z,48.50
2018-11-25T22:25:39.674Z,49.58
2018-11-25T22:28:07.363Z,51.20
2018-11-25T22:30:34.761Z,51.98
2018-11-25T22:33:02.168Z,51.65
2018-11-25T22:35:29.547Z,58.65
2018-11-25T22:37:57.808Z,52.50
2018-11-25T22:40:25.173Z,53.80
2018-11-25T22:42:52.554Z,54.53
2018-11-25T22:45:21.287Z,58.15
2018-11-25T22:47:49.303Z,48.17
2018-11-25T22:50:17.827Z,57.10
2018-11-25T22:52:46.115Z,50.98
2018-11-25T22:55:14.968Z,52.20
2018-11-25T22:57:43.946Z,51.30
2018-11-25T23:00:15.529Z,52.23
2018-11-25T23:02:43.115Z,52.53
2018-11-25T23:05:16.203Z,55.60
2018-11-25T23:07:43.869Z,53.38
2018-11-25T23:10:11.206Z,50.35
2018-11-25T23:12:38.647Z,54.65
2018-11-25T23:15:06.109Z,52.88
2018-11-25T23:17:34.155Z,58.80
2018-11-25T23:20:01.911Z,51.55
2018-11-25T23:22:29.249Z,53.83
2018-11-25T23:24:56.902Z,52.67
2018-11-25T23:27:24.593Z,54.03
2018-11-25T23:29:51.963Z,57.33
2018-11-25T23:32:20.131Z,55.60
2018-11-25T23:34:47.786Z,55.60
2018-11-25T23:37:15.101Z,58.38
2018-11-25T23:39:42.474Z,53.63
2018-11-25T23:42:10.546Z,55.83
2018-11-25T23:44:38.269Z,52.67
2018-11-25T23:47:05.894Z,55.20
2018-11-25T23:49:34.207Z,53.52
2018-11-25T23:52:02.142Z,50.73
2018-11-25T23:54:29.838Z,46.58
2018-11-25T23:56:57.290Z,47.35
2018-11-25T23:59:24.928Z,47.48
